Time;durP1;ratioP1;P1;durP2;ratioP2;P2;SDS_P1;SDS_P2;PMS_P1;PMS_P2;Temp;Humidity;BMP_temperature;BMP_pressure;BME280_temperature;BME280_humidity;BME280_pressure;Samples;Min_cycle;Max_cycle;Signal;HPM_P1;HPM_P2
2023/03/29 00:01:35;;;;;;;20.00;19.00;;;;;;;;;;5057972;28;20271;-84
2023/03/29 00:04:04;;;;;;;21.63;20.40;;;;;;;;;;5057279;28;20289;-85
2023/03/29 00:06:32;;;;;;;20.83;19.70;;;;;;;;;;5059300;28;20508;-84
2023/03/29 00:08:59;;;;;;;21.10;19.90;;;;;;;;;;5059230;28;20217;-84
2023/03/29 00:11:27;;;;;;;20.37;19.37;;;;;;;;;;5060793;28;20462;-84
2023/03/29 00:13:54;;;;;;;20.60;19.50;;;;;;;;;;5056172;28;20504;-85
2023/03/29 00:16:21;;;;;;;20.60;19.50;;;;;;;;;;5059028;28;20210;-85
2023/03/29 00:18:49;;;;;;;20.42;19.33;;;;;;;;;;5057940;28;20281;-84
2023/03/29 00:21:17;;;;;;;19.85;18.85;;;;;;;;;;5056465;28;20589;-84
2023/03/29 00:23:44;;;;;;;20.30;19.20;;;;;;;;;;5057255;28;20273;-84
2023/03/29 00:26:11;;;;;;;19.73;18.67;;;;;;;;;;5060058;28;20210;-85
2023/03/29 00:28:38;;;;;;;19.43;18.23;;;;;;;;;;5065166;28;20485;-85
2023/03/29 00:31:07;;;;;;;20.85;19.40;;;;;;;;;;5062972;28;20475;-84
2023/03/29 00:33:34;;;;;;;20.10;18.90;;;;;;;;;;5063839;28;20208;-84
2023/03/29 00:36:03;;;;;;;19.92;18.83;;;;;;;;;;5061938;28;20206;-85
2023/03/29 00:38:31;;;;;;;20.58;19.48;;;;;;;;;;5061932;28;20614;-84
2023/03/29 00:40:58;;;;;;;20.38;19.20;;;;;;;;;;5061586;28;20606;-84
2023/03/29 00:43:25;;;;;;;18.27;17.33;;;;;;;;;;5062063;28;20279;-84
2023/03/29 00:45:52;;;;;;;20.40;19.10;;;;;;;;;;5061573;28;20275;-85
2023/03/29 00:48:21;;;;;;;19.65;18.58;;;;;;;;;;5061788;28;20516;-84
2023/03/29 00:50:50;;;;;;;21.33;20.02;;;;;;;;;;5060788;28;20259;-84
2023/03/29 00:53:20;;;;;;;20.45;19.25;;;;;;;;;;5061995;28;20209;-84
2023/03/29 00:55:51;;;;;;;21.40;20.13;;;;;;;;;;5060571;28;20593;-85
2023/03/29 00:58:20;;;;;;;20.63;19.53;;;;;;;;;;5061245;28;20227;-85
2023/03/29 01:00:51;;;;;;;21.10;20.00;;;;;;;;;;5064265;28;20435;-84
2023/03/29 01:03:23;;;;;;;20.25;19.15;;;;;;;;;;5076819;28;20255;-85
2023/03/29 01:05:52;;;;;;;22.02;20.73;;;;;;;;;;5076746;28;20207;-85
2023/03/29 01:08:24;;;;;;;21.30;20.10;;;;;;;;;;5068428;28;20275;-85
2023/03/29 01:10:53;;;;;;;20.80;19.67;;;;;;;;;;5064630;28;20189;-85
2023/03/29 01:13:25;;;;;;;21.90;20.60;;;;;;;;;;5063474;28;20231;-85
2023/03/29 01:15:54;;;;;;;21.20;20.00;;;;;;;;;;5062376;28;20306;-85
2023/03/29 01:18:21;;;;;;;20.23;18.98;;;;;;;;;;5063406;28;20283;-85
2023/03/29 01:21:01;;;;;;;21.75;20.45;;;;;;;;;;5059843;28;20212;-84
2023/03/29 01:23:42;;;;;;;20.95;19.85;;;;;;;;;;5060584;28;20208;-84
2023/03/29 01:26:14;;;;;;;20.60;19.40;;;;;;;;;;5059831;28;20188;-85
2023/03/29 01:28:46;;;;;;;21.37;20.27;;;;;;;;;;5058494;28;20284;-84
2023/03/29 01:31:15;;;;;;;20.98;19.85;;;;;;;;;;5060143;28;20452;-84
2023/03/29 01:33:44;;;;;;;21.00;19.80;;;;;;;;;;5058480;28;20304;-84
2023/03/29 01:36:15;;;;;;;20.73;19.53;;;;;;;;;;5059537;28;20290;-84
2023/03/29 01:38:43;;;;;;;20.70;19.50;;;;;;;;;;5059401;28;20456;-84
2023/03/29 01:41:11;;;;;;;20.83;19.63;;;;;;;;;;5062200;28;20248;-85
2023/03/29 01:43:42;;;;;;;21.58;20.35;;;;;;;;;;5061644;28;20494;-84
2023/03/29 01:46:14;;;;;;;20.90;19.70;;;;;;;;;;5061471;28;20184;-85
2023/03/29 01:48:46;;;;;;;20.50;19.30;;;;;;;;;;5060851;28;20259;-84
2023/03/29 01:51:16;;;;;;;20.40;19.27;;;;;;;;;;5059747;28;20908;-84
2023/03/29 01:53:46;;;;;;;20.50;19.10;;;;;;;;;;5060863;28;20242;-84
2023/03/29 01:56:15;;;;;;;21.27;19.92;;;;;;;;;;5057929;28;20451;-85
2023/03/29 01:58:43;;;;;;;21.00;19.80;;;;;;;;;;5057923;28;20609;-84
2023/03/29 02:01:16;;;;;;;21.13;19.87;;;;;;;;;;5058872;28;20447;-84
2023/03/29 02:03:48;;;;;;;21.10;19.95;;;;;;;;;;5058904;28;20970;-84
2023/03/29 02:06:16;;;;;;;20.17;19.07;;;;;;;;;;5058255;28;20223;-84
2023/03/29 02:08:45;;;;;;;20.30;19.20;;;;;;;;;;5057558;28;20478;-84
2023/03/29 02:11:12;;;;;;;21.27;20.07;;;;;;;;;;5058710;28;20203;-84
2023/03/29 02:13:39;;;;;;;20.20;19.10;;;;;;;;;;5058077;28;20476;-84
2023/03/29 02:16:10;;;;;;;21.23;20.02;;;;;;;;;;5057967;28;20620;-84
2023/03/29 02:18:40;;;;;;;20.58;19.45;;;;;;;;;;5059454;28;20224;-85
2023/03/29 02:21:07;;;;;;;21.63;20.23;;;;;;;;;;5058680;28;20297;-84
2023/03/29 02:23:37;;;;;;;20.70;19.60;;;;;;;;;;5057828;28;20589;-84
2023/03/29 02:26:05;;;;;;;22.60;21.20;;;;;;;;;;5057262;28;20730;-84
2023/03/29 02:28:33;;;;;;;22.40;20.90;;;;;;;;;;5057671;28;20280;-84
2023/03/29 02:31:03;;;;;;;21.20;20.08;;;;;;;;;;5058448;28;20196;-85
2023/03/29 02:33:34;;;;;;;21.30;20.00;;;;;;;;;;5058712;28;20201;-84
2023/03/29 02:36:04;;;;;;;22.20;20.80;;;;;;;;;;5057311;28;20414;-85
2023/03/29 02:38:32;;;;;;;21.53;20.33;;;;;;;;;;5058117;28;20224;-85
2023/03/29 02:41:00;;;;;;;21.00;19.73;;;;;;;;;;5058173;28;20765;-85
2023/03/29 02:43:27;;;;;;;21.13;20.02;;;;;;;;;;5057912;28;20202;-84
2023/03/29 02:45:55;;;;;;;22.05;20.38;;;;;;;;;;5057765;28;20211;-85
2023/03/29 02:48:24;;;;;;;21.38;20.17;;;;;;;;;;5057787;28;20230;-85
2023/03/29 02:50:54;;;;;;;20.63;19.50;;;;;;;;;;5058295;28;20212;-84
2023/03/29 02:53:25;;;;;;;22.67;20.92;;;;;;;;;;5057155;28;20190;-84
2023/03/29 02:55:52;;;;;;;21.38;20.00;;;;;;;;;;5057747;28;20201;-84
2023/03/29 02:58:27;;;;;;;20.30;19.20;;;;;;;;;;5102394;23;20312;-84
2023/03/29 03:00:55;;;;;;;20.27;19.25;;;;;;;;;;5037901;28;20628;-84
2023/03/29 03:03:22;;;;;;;22.63;21.27;;;;;;;;;;5037505;28;20198;-84
2023/03/29 03:05:49;;;;;;;20.60;19.47;;;;;;;;;;5037034;28;20267;-85
2023/03/29 03:08:17;;;;;;;21.85;20.40;;;;;;;;;;5037187;28;21027;-84
2023/03/29 03:10:46;;;;;;;21.92;20.60;;;;;;;;;;5036717;28;20209;-84
2023/03/29 03:13:13;;;;;;;20.33;19.23;;;;;;;;;;5037630;28;20251;-84
2023/03/29 03:15:41;;;;;;;21.70;20.17;;;;;;;;;;5036255;28;20493;-85
2023/03/29 03:18:11;;;;;;;20.27;19.20;;;;;;;;;;5037101;28;20235;-84
2023/03/29 03:20:39;;;;;;;21.48;20.30;;;;;;;;;;5037294;28;20479;-84
2023/03/29 03:23:07;;;;;;;21.30;20.13;;;;;;;;;;5037445;28;20269;-84
2023/03/29 03:25:35;;;;;;;22.27;20.97;;;;;;;;;;5037013;28;20486;-85
2023/03/29 03:28:03;;;;;;;20.70;19.60;;;;;;;;;;5036895;28;20478;-85
2023/03/29 03:30:32;;;;;;;21.33;20.10;;;;;;;;;;5036935;28;20494;-84
2023/03/29 03:32:59;;;;;;;22.75;21.45;;;;;;;;;;5036921;28;20446;-85
2023/03/29 03:35:45;;;;;;;22.63;21.23;;;;;;;;;;5114559;27;20543;-84
2023/03/29 03:38:12;;;;;;;22.00;20.70;;;;;;;;;;5115003;28;20511;-84
2023/03/29 03:40:39;;;;;;;21.07;19.63;;;;;;;;;;5115686;28;20198;-84
2023/03/29 03:43:06;;;;;;;20.88;19.67;;;;;;;;;;5115057;28;20432;-84
2023/03/29 03:45:34;;;;;;;21.38;20.27;;;;;;;;;;5115063;28;20202;-84
2023/03/29 03:48:01;;;;;;;20.60;19.30;;;;;;;;;;5114751;28;20275;-84
2023/03/29 03:50:28;;;;;;;20.90;19.80;;;;;;;;;;5115662;28;20178;-84
2023/03/29 03:52:56;;;;;;;21.07;19.67;;;;;;;;;;5115503;28;20447;-84
2023/03/29 03:55:23;;;;;;;20.30;19.20;;;;;;;;;;5114610;28;20872;-84
2023/03/29 03:57:52;;;;;;;22.73;21.00;;;;;;;;;;5114289;28;20288;-83
2023/03/29 04:00:19;;;;;;;22.57;21.20;;;;;;;;;;5114421;28;20203;-83
2023/03/29 04:02:46;;;;;;;21.42;20.17;;;;;;;;;;5120529;28;20456;-83
2023/03/29 04:05:14;;;;;;;23.15;21.55;;;;;;;;;;5115104;28;20256;-84
2023/03/29 04:07:41;;;;;;;21.80;20.57;;;;;;;;;;5114656;28;20650;-83
2023/03/29 04:10:11;;;;;;;24.73;23.20;;;;;;;;;;5115130;28;20464;-83
2023/03/29 04:12:38;;;;;;;20.75;19.55;;;;;;;;;;5115198;28;20518;-83
2023/03/29 04:15:06;;;;;;;22.20;20.90;;;;;;;;;;5115448;28;20251;-83
2023/03/29 04:17:33;;;;;;;21.85;20.60;;;;;;;;;;5114176;28;20213;-82
2023/03/29 04:20:05;;;;;;;22.40;21.03;;;;;;;;;;5114594;28;20209;-82
2023/03/29 04:22:33;;;;;;;20.63;19.48;;;;;;;;;;5115410;28;21093;-83
2023/03/29 04:25:00;;;;;;;21.20;20.00;;;;;;;;;;5115061;28;20199;-84
2023/03/29 04:27:28;;;;;;;21.92;20.60;;;;;;;;;;5114989;28;20403;-84
2023/03/29 04:29:55;;;;;;;21.80;20.20;;;;;;;;;;5114997;28;20218;-83
2023/03/29 04:32:22;;;;;;;21.83;20.58;;;;;;;;;;5115826;28;20523;-83
2023/03/29 04:34:49;;;;;;;21.67;20.27;;;;;;;;;;5116029;28;20222;-83
2023/03/29 04:37:20;;;;;;;21.53;20.13;;;;;;;;;;5129148;28;20205;-84
2023/03/29 04:39:48;;;;;;;21.40;20.17;;;;;;;;;;5120938;28;20862;-84
2023/03/29 04:42:15;;;;;;;21.10;19.90;;;;;;;;;;5117728;28;20202;-83
2023/03/29 04:44:43;;;;;;;21.08;19.88;;;;;;;;;;5117239;28;20225;-84
2023/03/29 04:47:11;;;;;;;21.92;20.63;;;;;;;;;;5102767;28;20241;-84
2023/03/29 04:49:38;;;;;;;21.02;19.73;;;;;;;;;;5102884;28;20223;-84
2023/03/29 04:52:05;;;;;;;22.58;21.27;;;;;;;;;;5102713;28;20211;-84
2023/03/29 04:54:32;;;;;;;21.13;19.77;;;;;;;;;;5103773;28;20226;-83
2023/03/29 04:57:00;;;;;;;21.85;20.35;;;;;;;;;;5103692;28;20271;-84
2023/03/29 04:59:26;;;;;;;23.42;21.25;;;;;;;;;;5103381;28;20276;-84
2023/03/29 05:01:55;;;;;;;21.07;19.87;;;;;;;;;;5102311;28;20205;-83
2023/03/29 05:04:23;;;;;;;22.50;21.10;;;;;;;;;;5104460;28;20449;-84
2023/03/29 05:06:50;;;;;;;23.40;21.80;;;;;;;;;;5108895;28;20426;-83
2023/03/29 05:09:17;;;;;;;21.75;20.55;;;;;;;;;;5102884;28;20453;-83
2023/03/29 05:11:44;;;;;;;21.98;20.40;;;;;;;;;;5102656;28;20256;-80
2023/03/29 05:14:11;;;;;;;22.13;20.45;;;;;;;;;;5101107;28;20241;-80
2023/03/29 05:16:40;;;;;;;22.33;21.00;;;;;;;;;;5101649;28;20217;-80
2023/03/29 05:19:10;;;;;;;22.40;21.10;;;;;;;;;;5102450;28;20218;-80
2023/03/29 05:21:37;;;;;;;124.45;67.47;;;;;;;;;;5109649;28;20214;-80
2023/03/29 05:24:04;;;;;;;21.73;20.52;;;;;;;;;;5115598;28;20219;-81
2023/03/29 05:26:32;;;;;;;21.95;20.35;;;;;;;;;;5118305;28;20191;-81
2023/03/29 05:28:59;;;;;;;21.95;20.65;;;;;;;;;;5109118;28;20255;-80
2023/03/29 05:31:27;;;;;;;22.13;20.83;;;;;;;;;;5100494;28;20202;-80
2023/03/29 05:33:54;;;;;;;21.98;20.58;;;;;;;;;;5099814;28;20221;-81
2023/03/29 05:36:22;;;;;;;21.90;20.40;;;;;;;;;;5100967;28;20191;-80
2023/03/29 05:38:49;;;;;;;22.50;21.20;;;;;;;;;;5097075;28;20215;-80
2023/03/29 05:41:16;;;;;;;22.03;20.80;;;;;;;;;;5099652;28;20202;-80
2023/03/29 05:43:43;;;;;;;21.60;20.30;;;;;;;;;;5097778;28;20524;-80
2023/03/29 05:46:11;;;;;;;22.67;21.27;;;;;;;;;;5098754;28;20194;-80
2023/03/29 05:48:38;;;;;;;21.97;20.40;;;;;;;;;;5101499;28;20446;-80
2023/03/29 05:51:05;;;;;;;22.17;20.85;;;;;;;;;;5097304;28;20465;-80
2023/03/29 05:53:34;;;;;;;22.27;20.90;;;;;;;;;;5098560;28;20252;-80
2023/03/29 05:56:01;;;;;;;21.58;20.15;;;;;;;;;;5096554;28;20453;-80
2023/03/29 05:58:29;;;;;;;21.80;20.50;;;;;;;;;;5096079;28;20706;-79
2023/03/29 06:00:59;;;;;;;21.75;20.15;;;;;;;;;;5098085;28;20631;-80
2023/03/29 06:03:26;;;;;;;22.20;20.80;;;;;;;;;;5097674;28;20208;-80
2023/03/29 06:05:57;;;;;;;21.97;20.63;;;;;;;;;;5097139;28;20452;-80
2023/03/29 06:08:25;;;;;;;22.20;20.80;;;;;;;;;;5097255;28;20469;-80
2023/03/29 06:10:57;;;;;;;21.97;20.67;;;;;;;;;;5097318;28;20423;-80
2023/03/29 06:13:25;;;;;;;22.92;21.05;;;;;;;;;;5096362;28;20786;-80
2023/03/29 06:15:52;;;;;;;22.83;21.30;;;;;;;;;;5095437;28;20214;-80
2023/03/29 06:18:19;;;;;;;23.27;21.55;;;;;;;;;;5095579;28;20245;-80
2023/03/29 06:20:48;;;;;;;22.67;21.00;;;;;;;;;;5097665;28;20207;-80
2023/03/29 06:23:15;;;;;;;23.88;22.00;;;;;;;;;;5096466;28;20202;-80
2023/03/29 06:25:43;;;;;;;23.33;21.73;;;;;;;;;;5096867;28;20294;-80
2023/03/29 06:28:11;;;;;;;22.52;20.63;;;;;;;;;;5095715;28;20592;-79
2023/03/29 06:30:38;;;;;;;22.00;20.53;;;;;;;;;;5098606;28;20187;-80
2023/03/29 06:33:06;;;;;;;22.93;21.43;;;;;;;;;;5099054;28;20441;-81
2023/03/29 06:35:33;;;;;;;22.40;20.90;;;;;;;;;;5097867;28;20826;-80
2023/03/29 06:38:00;;;;;;;21.70;20.30;;;;;;;;;;5096627;28;20474;-80
2023/03/29 06:40:27;;;;;;;21.00;19.80;;;;;;;;;;5097077;28;20433;-80
2023/03/29 06:42:56;;;;;;;21.27;19.90;;;;;;;;;;5097104;28;20765;-80
2023/03/29 06:45:25;;;;;;;22.33;20.90;;;;;;;;;;5095946;28;20205;-80
2023/03/29 06:47:52;;;;;;;22.53;21.00;;;;;;;;;;5096002;28;20502;-80
2023/03/29 06:50:19;;;;;;;21.40;20.10;;;;;;;;;;5096820;28;20467;-80
2023/03/29 06:52:46;;;;;;;22.43;21.10;;;;;;;;;;5096549;28;20531;-80
2023/03/29 06:55:14;;;;;;;26.30;24.50;;;;;;;;;;5095829;28;20487;-80
2023/03/29 06:57:42;;;;;;;21.80;20.33;;;;;;;;;;5095860;28;20925;-80
2023/03/29 07:00:15;;;;;;;21.60;20.30;;;;;;;;;;5096467;28;20460;-80
2023/03/29 07:02:44;;;;;;;22.20;20.70;;;;;;;;;;5099480;28;20472;-80
2023/03/29 07:05:12;;;;;;;22.23;20.93;;;;;;;;;;5099366;28;20422;-80
2023/03/29 07:07:52;;;;;;;22.40;20.90;;;;;;;;;;5099947;28;20453;-80
2023/03/29 07:10:20;;;;;;;21.20;19.90;;;;;;;;;;5098732;28;20443;-80
2023/03/29 07:12:47;;;;;;;21.30;19.50;;;;;;;;;;5096527;28;20449;-80
2023/03/29 07:15:14;;;;;;;21.53;20.13;;;;;;;;;;5098313;28;20510;-79
2023/03/29 07:17:41;;;;;;;20.93;19.73;;;;;;;;;;5095461;28;20453;-79
2023/03/29 07:20:12;;;;;;;24.30;22.60;;;;;;;;;;5095938;28;20954;-78
2023/03/29 07:22:40;;;;;;;21.17;19.67;;;;;;;;;;5095908;28;20786;-80
2023/03/29 07:25:08;;;;;;;22.73;21.33;;;;;;;;;;5096065;28;20896;-80
2023/03/29 07:27:35;;;;;;;21.83;20.33;;;;;;;;;;5097700;28;20783;-80
2023/03/29 07:30:05;;;;;;;24.20;22.67;;;;;;;;;;5096982;28;20210;-80
2023/03/29 07:32:32;;;;;;;20.63;19.33;;;;;;;;;;5097593;28;20520;-80
2023/03/29 07:34:59;;;;;;;20.13;19.03;;;;;;;;;;5096839;28;20455;-80
2023/03/29 07:37:28;;;;;;;21.33;20.13;;;;;;;;;;5097089;28;20412;-79
2023/03/29 07:39:55;;;;;;;22.10;20.70;;;;;;;;;;5096251;28;20814;-79
2023/03/29 07:42:22;;;;;;;21.80;20.30;;;;;;;;;;5097636;28;20495;-79
2023/03/29 07:44:49;;;;;;;21.03;19.80;;;;;;;;;;5096763;28;20467;-79
2023/03/29 07:47:16;;;;;;;22.23;20.83;;;;;;;;;;5096208;28;20862;-79
2023/03/29 07:49:43;;;;;;;23.17;21.53;;;;;;;;;;5099041;28;20447;-79
2023/03/29 07:52:10;;;;;;;21.27;20.10;;;;;;;;;;5099060;28;20468;-79
2023/03/29 07:54:39;;;;;;;21.70;20.40;;;;;;;;;;5098429;28;20986;-80
2023/03/29 07:57:06;;;;;;;22.20;20.80;;;;;;;;;;5097420;28;20407;-79
2023/03/29 07:59:34;;;;;;;21.43;19.93;;;;;;;;;;5097460;28;20447;-80
2023/03/29 08:02:01;;;;;;;21.63;20.33;;;;;;;;;;5097323;28;20452;-80
2023/03/29 08:04:28;;;;;;;22.30;20.83;;;;;;;;;;5098386;28;20453;-80
2023/03/29 08:06:55;;;;;;;22.20;20.73;;;;;;;;;;5097056;28;20432;-80
2023/03/29 08:09:22;;;;;;;21.60;20.30;;;;;;;;;;5097127;28;20447;-80
2023/03/29 08:11:50;;;;;;;21.70;20.23;;;;;;;;;;5097048;28;20443;-80
2023/03/29 08:14:17;;;;;;;21.17;19.97;;;;;;;;;;5097108;28;20445;-80
2023/03/29 08:16:44;;;;;;;21.27;20.17;;;;;;;;;;5076228;28;20471;-79
2023/03/29 08:19:12;;;;;;;21.50;20.30;;;;;;;;;;5076536;28;21030;-79
2023/03/29 08:21:39;;;;;;;21.10;19.90;;;;;;;;;;5079268;28;20879;-79
2023/03/29 08:24:06;;;;;;;21.83;20.37;;;;;;;;;;5081310;28;20450;-79
2023/03/29 08:26:33;;;;;;;20.80;19.60;;;;;;;;;;5079517;28;20802;-79
2023/03/29 08:29:02;;;;;;;20.87;19.77;;;;;;;;;;5080275;28;20470;-79
2023/03/29 08:31:30;;;;;;;21.50;20.00;;;;;;;;;;5080464;28;20460;-79
2023/03/29 08:33:57;;;;;;;20.93;19.70;;;;;;;;;;5080103;28;20221;-79
2023/03/29 08:36:24;;;;;;;21.53;20.10;;;;;;;;;;5078898;28;20480;-79
2023/03/29 08:38:51;;;;;;;21.30;20.13;;;;;;;;;;5079811;28;20499;-79
2023/03/29 08:41:26;;;;;;;21.83;20.53;;;;;;;;;;5080116;28;20519;-79
2023/03/29 08:43:57;;;;;;;22.30;20.90;;;;;;;;;;5079828;28;20416;-80
2023/03/29 08:46:31;;;;;;;21.03;19.83;;;;;;;;;;5079838;28;20510;-79
2023/03/29 08:49:01;;;;;;;21.63;20.43;;;;;;;;;;5080160;28;20477;-79
2023/03/29 08:51:30;;;;;;;21.50;20.30;;;;;;;;;;5080312;28;20449;-79
2023/03/29 08:54:00;;;;;;;21.13;19.93;;;;;;;;;;5080042;28;20499;-79
2023/03/29 08:56:28;;;;;;;22.53;21.23;;;;;;;;;;5079636;28;20993;-79
2023/03/29 08:58:56;;;;;;;21.43;20.13;;;;;;;;;;5079728;28;20477;-80
2023/03/29 09:01:25;;;;;;;23.10;21.30;;;;;;;;;;5080220;28;20457;-79
2023/03/29 09:04:00;;;;;;;23.57;21.73;;;;;;;;;;5081375;28;20503;-79
2023/03/29 09:06:27;;;;;;;22.03;20.73;;;;;;;;;;5083489;28;20544;-79
2023/03/29 09:08:54;;;;;;;22.00;20.70;;;;;;;;;;5095411;28;20455;-80
2023/03/29 09:11:26;;;;;;;21.90;20.53;;;;;;;;;;5095957;28;20462;-83
2023/03/29 09:13:57;;;;;;;22.93;21.20;;;;;;;;;;5077727;28;20832;-86
2023/03/29 09:16:26;;;;;;;21.83;20.30;;;;;;;;;;5076356;28;20509;-79
2023/03/29 09:18:58;;;;;;;21.40;20.20;;;;;;;;;;5076479;28;20474;-80
2023/03/29 09:21:31;;;;;;;21.80;20.50;;;;;;;;;;5076355;28;20525;-80
2023/03/29 09:24:06;;;;;;;22.30;20.70;;;;;;;;;;5083527;28;20848;-80
2023/03/29 09:26:37;;;;;;;21.90;20.40;;;;;;;;;;5098633;28;20466;-79
2023/03/29 09:29:09;;;;;;;21.80;20.20;;;;;;;;;;5102324;28;20472;-86
2023/03/29 09:31:39;;;;;;;22.10;20.43;;;;;;;;;;5100068;28;20398;-83
2023/03/29 09:34:11;;;;;;;21.80;20.50;;;;;;;;;;5099165;28;20453;-80
2023/03/29 09:36:42;;;;;;;21.87;20.47;;;;;;;;;;5101835;28;20472;-79
2023/03/29 09:39:10;;;;;;;22.13;20.83;;;;;;;;;;5096481;28;20500;-79
2023/03/29 09:41:41;;;;;;;22.10;20.70;;;;;;;;;;5100273;28;20804;-87
2023/03/29 09:44:09;;;;;;;22.07;20.33;;;;;;;;;;5103315;28;20445;-79
2023/03/29 09:46:39;;;;;;;22.30;20.90;;;;;;;;;;5114186;28;20449;-79
2023/03/29 09:49:10;;;;;;;20.83;19.63;;;;;;;;;;5117308;28;20460;-77
2023/03/29 09:51:38;;;;;;;21.70;20.40;;;;;;;;;;5116739;28;20485;-78
2023/03/29 09:54:05;;;;;;;21.67;20.00;;;;;;;;;;5115377;28;20461;-78
2023/03/29 09:56:32;;;;;;;21.37;20.07;;;;;;;;;;5115470;28;20488;-80
2023/03/29 09:58:59;;;;;;;21.80;20.50;;;;;;;;;;5103449;28;20472;-78
2023/03/29 10:01:35;;;;;;;22.83;21.43;;;;;;;;;;5102847;28;20463;-77
2023/03/29 10:04:02;;;;;;;21.40;20.00;;;;;;;;;;5103122;28;20467;-77
2023/03/29 10:06:31;;;;;;;22.10;20.67;;;;;;;;;;5100864;28;20542;-78
2023/03/29 10:08:58;;;;;;;21.90;20.40;;;;;;;;;;5102219;28;20469;-77
2023/03/29 10:11:29;;;;;;;23.33;21.30;;;;;;;;;;5099244;28;20799;-77
2023/03/29 10:14:00;;;;;;;23.43;21.93;;;;;;;;;;5100141;28;20464;-78
2023/03/29 10:16:29;;;;;;;24.23;22.50;;;;;;;;;;5097549;28;20443;-78
2023/03/29 10:18:57;;;;;;;22.80;21.10;;;;;;;;;;5098251;28;20477;-80
2023/03/29 10:21:24;;;;;;;22.40;21.00;;;;;;;;;;5097125;28;20415;-80
2023/03/29 10:23:59;;;;;;;23.20;21.63;;;;;;;;;;5096597;28;20456;-83
2023/03/29 10:26:28;;;;;;;23.47;22.07;;;;;;;;;;5094113;28;20443;-84
2023/03/29 10:28:59;;;;;;;23.70;21.90;;;;;;;;;;5093683;28;20527;-82
2023/03/29 10:31:26;;;;;;;22.77;21.07;;;;;;;;;;5093458;28;20440;-86
2023/03/29 10:33:54;;;;;;;22.60;21.10;;;;;;;;;;5094452;28;20498;-79
2023/03/29 10:36:22;;;;;;;23.00;21.47;;;;;;;;;;5094614;28;20535;-79
2023/03/29 10:38:50;;;;;;;25.30;23.37;;;;;;;;;;5095313;28;20546;-84
2023/03/29 10:41:20;;;;;;;23.87;22.30;;;;;;;;;;5095468;28;20446;-79
2023/03/29 10:43:49;;;;;;;71.90;46.83;;;;;;;;;;5094718;28;20460;-80
2023/03/29 10:46:20;;;;;;;22.43;20.93;;;;;;;;;;5095627;28;20559;-80
2023/03/29 10:48:48;;;;;;;22.60;21.20;;;;;;;;;;5098611;28;20469;-78
2023/03/29 10:51:16;;;;;;;23.33;21.57;;;;;;;;;;5097321;28;20529;-78
2023/03/29 10:53:43;;;;;;;21.83;20.23;;;;;;;;;;5100041;28;20448;-78
2023/03/29 10:56:28;;;;;;;22.50;21.20;;;;;;;;;;5094757;28;20873;-78
2023/03/29 10:59:03;;;;;;;23.20;21.70;;;;;;;;;;5096273;28;20559;-81
2023/03/29 11:01:32;;;;;;;24.70;23.03;;;;;;;;;;5094174;28;20950;-78
2023/03/29 11:04:07;;;;;;;23.57;21.90;;;;;;;;;;5096123;28;20396;-77
2023/03/29 11:06:37;;;;;;;22.70;21.30;;;;;;;;;;5095935;28;20482;-77
2023/03/29 11:09:07;;;;;;;22.47;20.83;;;;;;;;;;5094056;28;20461;-77
2023/03/29 11:11:45;;;;;;;22.47;20.87;;;;;;;;;;5097245;28;20938;-76
2023/03/29 11:14:20;;;;;;;22.53;20.97;;;;;;;;;;5096504;28;20395;-78
2023/03/29 11:16:49;;;;;;;25.33;23.43;;;;;;;;;;5098353;28;20501;-77
2023/03/29 11:19:34;;;;;;;23.30;21.50;;;;;;;;;;5097441;28;21008;-76
2023/03/29 11:22:04;;;;;;;23.80;22.20;;;;;;;;;;5096642;28;20486;-76
2023/03/29 11:24:40;;;;;;;25.60;23.67;;;;;;;;;;5098771;28;20814;-76
2023/03/29 11:27:13;;;;;;;22.70;21.20;;;;;;;;;;5099085;28;20515;-76
2023/03/29 11:29:44;;;;;;;22.90;21.30;;;;;;;;;;5096534;28;20447;-76
2023/03/29 11:32:15;;;;;;;23.87;22.10;;;;;;;;;;5094853;28;20460;-77
2023/03/29 11:34:49;;;;;;;23.33;21.83;;;;;;;;;;5095558;28;20919;-78
2023/03/29 11:37:19;;;;;;;27.43;25.60;;;;;;;;;;5098756;28;20508;-77
2023/03/29 11:39:52;;;;;;;23.43;22.03;;;;;;;;;;5100824;28;20443;-77
2023/03/29 11:42:22;;;;;;;23.37;21.57;;;;;;;;;;5098460;28;20427;-76
2023/03/29 11:44:52;;;;;;;22.33;21.00;;;;;;;;;;5099364;28;20419;-77
2023/03/29 11:47:21;;;;;;;26.40;24.60;;;;;;;;;;5102786;28;20400;-77
2023/03/29 11:49:53;;;;;;;23.70;22.10;;;;;;;;;;5107021;28;20479;-77
2023/03/29 11:52:23;;;;;;;25.43;23.63;;;;;;;;;;5110705;28;20476;-77
2023/03/29 11:54:53;;;;;;;24.87;23.17;;;;;;;;;;5113654;28;20417;-78
2023/03/29 11:57:22;;;;;;;24.80;23.10;;;;;;;;;;5116476;28;20446;-77
2023/03/29 11:59:54;;;;;;;28.47;26.50;;;;;;;;;;5117936;28;20468;-77
2023/03/29 12:02:26;;;;;;;29.27;27.10;;;;;;;;;;5117963;28;20423;-77
2023/03/29 12:04:55;;;;;;;30.73;28.83;;;;;;;;;;5118571;28;20464;-75
2023/03/29 12:07:26;;;;;;;29.33;27.30;;;;;;;;;;5110415;28;20490;-77
2023/03/29 12:09:56;;;;;;;29.33;27.53;;;;;;;;;;5111018;28;20551;-77
2023/03/29 12:12:27;;;;;;;31.77;29.07;;;;;;;;;;5110234;28;20416;-77
2023/03/29 12:14:57;;;;;;;32.07;29.90;;;;;;;;;;5114816;28;20465;-77
2023/03/29 12:17:27;;;;;;;31.70;29.53;;;;;;;;;;5107570;28;20492;-76
2023/03/29 12:20:00;;;;;;;32.10;29.83;;;;;;;;;;5113338;28;20474;-77
2023/03/29 12:22:27;;;;;;;31.67;29.80;;;;;;;;;;5118317;28;20407;-78
2023/03/29 12:24:56;;;;;;;29.40;27.40;;;;;;;;;;5117819;28;20429;-77
2023/03/29 12:27:25;;;;;;;31.80;29.90;;;;;;;;;;5116345;28;20433;-77
2023/03/29 12:30:05;;;;;;;32.93;31.10;;;;;;;;;;5115107;28;20469;-77
2023/03/29 12:32:38;;;;;;;34.43;31.60;;;;;;;;;;5110003;28;20439;-77
2023/03/29 12:35:15;;;;;;;35.50;33.20;;;;;;;;;;5116057;28;20431;-77
2023/03/29 12:37:45;;;;;;;34.73;32.63;;;;;;;;;;5114538;28;20470;-77
2023/03/29 12:40:15;;;;;;;36.37;33.67;;;;;;;;;;5109096;28;20431;-77
2023/03/29 12:42:47;;;;;;;34.97;32.57;;;;;;;;;;5115609;28;20507;-77
2023/03/29 12:45:19;;;;;;;33.20;31.10;;;;;;;;;;5113960;28;20482;-77
2023/03/29 12:47:47;;;;;;;35.57;33.27;;;;;;;;;;5111875;28;20429;-77
2023/03/29 12:50:27;;;;;;;37.97;35.30;;;;;;;;;;5112242;28;20495;-77
2023/03/29 12:52:54;;;;;;;41.13;37.80;;;;;;;;;;5117873;28;20404;-77
2023/03/29 12:55:24;;;;;;;37.57;35.00;;;;;;;;;;5116411;28;20440;-77
2023/03/29 12:58:01;;;;;;;36.80;34.50;;;;;;;;;;5115836;28;20496;-77
2023/03/29 13:00:32;;;;;;;35.87;33.57;;;;;;;;;;5115411;28;20453;-77
2023/03/29 13:03:00;;;;;;;33.80;31.43;;;;;;;;;;5114345;28;20401;-77
2023/03/29 13:05:31;;;;;;;33.40;31.10;;;;;;;;;;5116991;28;20412;-77
2023/03/29 13:08:01;;;;;;;33.70;30.93;;;;;;;;;;5115189;28;20480;-78
2023/03/29 13:10:38;;;;;;;35.43;32.37;;;;;;;;;;5111549;28;20546;-77
2023/03/29 13:13:10;;;;;;;34.47;32.03;;;;;;;;;;5109488;28;20414;-78
2023/03/29 13:15:39;;;;;;;30.80;28.90;;;;;;;;;;5114368;28;20495;-77
2023/03/29 13:18:12;;;;;;;29.90;27.80;;;;;;;;;;5110280;28;20484;-77
2023/03/29 13:20:44;;;;;;;30.23;28.33;;;;;;;;;;5112810;28;20443;-77
2023/03/29 13:23:25;;;;;;;31.03;28.83;;;;;;;;;;5110467;28;20416;-77
2023/03/29 13:26:00;;;;;;;28.20;26.23;;;;;;;;;;5112525;28;20456;-78
2023/03/29 13:28:30;;;;;;;27.83;26.00;;;;;;;;;;5109949;28;20463;-77
2023/03/29 13:31:02;;;;;;;27.67;25.83;;;;;;;;;;5106486;28;20472;-77
2023/03/29 13:33:52;;;;;;;28.20;26.10;;;;;;;;;;5115918;28;20447;-77
2023/03/29 13:36:27;;;;;;;25.50;23.90;;;;;;;;;;5114103;28;20455;-78
2023/03/29 13:38:55;;;;;;;24.50;23.00;;;;;;;;;;5117713;28;20452;-82
2023/03/29 13:41:32;;;;;;;26.17;24.47;;;;;;;;;;5117946;28;20443;-77
2023/03/29 13:44:01;;;;;;;25.37;23.40;;;;;;;;;;5118654;28;20420;-78
2023/03/29 13:46:40;;;;;;;25.73;23.90;;;;;;;;;;5113287;28;20449;-77
2023/03/29 13:49:14;;;;;;;27.67;25.63;;;;;;;;;;5109182;28;20457;-78
2023/03/29 13:51:44;;;;;;;26.77;24.70;;;;;;;;;;5104752;28;20404;-77
2023/03/29 13:54:19;;;;;;;25.83;24.07;;;;;;;;;;5105587;28;20479;-78
2023/03/29 13:56:53;;;;;;;25.60;24.00;;;;;;;;;;5107642;28;20463;-77
2023/03/29 13:59:25;;;;;;;26.20;24.07;;;;;;;;;;5106374;28;20463;-78
2023/03/29 14:01:56;;;;;;;27.00;25.00;;;;;;;;;;5104391;28;20462;-77
2023/03/29 14:04:25;;;;;;;25.00;23.40;;;;;;;;;;5106243;28;20452;-79
2023/03/29 14:06:53;;;;;;;25.00;23.10;;;;;;;;;;5106847;28;20457;-78
2023/03/29 14:09:22;;;;;;;24.97;23.47;;;;;;;;;;5108716;28;20481;-78
2023/03/29 14:11:49;;;;;;;25.43;23.53;;;;;;;;;;5108257;28;20419;-78
2023/03/29 14:14:16;;;;;;;21.93;20.43;;;;;;;;;;5103186;28;20449;-78
2023/03/29 14:16:43;;;;;;;24.93;23.33;;;;;;;;;;5104261;28;20449;-77
2023/03/29 14:19:15;;;;;;;26.37;24.37;;;;;;;;;;5105981;28;20457;-78
2023/03/29 14:21:42;;;;;;;24.97;23.37;;;;;;;;;;5115195;28;20418;-79
2023/03/29 14:24:12;;;;;;;26.60;24.63;;;;;;;;;;5109027;28;20451;-79
2023/03/29 14:26:40;;;;;;;25.83;24.13;;;;;;;;;;5107286;28;20481;-79
2023/03/29 14:29:10;;;;;;;25.20;23.40;;;;;;;;;;5113967;28;20480;-78